Terminal Aerodrome Forecast
Issued by NWS Sioux Falls, SD

Home | Current Version | Previous Version | Text Only | Print | Product List | Glossary On
Versions: 1 2 3 4 5 6 7 8 9 10 11 12 13 14 15 16 17 18 19 20 21 22 23 24 25 26 27 28 29 30 31 32 33 34 35
573
FTUS43 KFSD 201144
TAFSUX
TAF
KSUX 201144Z 2012/2112 15008KT 6SM BR SCT015 OVC060
      TEMPO 2012/2015 4SM -RA BR OVC009
     FM201500 17010KT 5SM BR OVC005
     FM201600 18011KT P6SM OVC008
     FM201700 21011KT P6SM OVC015
     FM201900 25011KT P6SM BKN050
     FM202100 30014G19KT P6SM SCT150
     FM210100 30009KT P6SM SCT200
     FM210700 24005KT P6SM SKC=

USA.gov is the U.S. government's official web portal to all federal, state and local government web resources and services.